createdAt,value
2017-03-20T00:00:26.894Z,10.94
2017-03-20T00:01:41.531Z,10.91
2017-03-20T00:02:26.935Z,10.85
2017-03-20T00:03:26.958Z,10.85
2017-03-20T00:04:26.981Z,10.91
2017-03-20T00:05:27.003Z,10.85
2017-03-20T00:06:27.020Z,10.85
2017-03-20T00:07:26.441Z,10.82
2017-03-20T00:08:27.069Z,10.91
2017-03-20T00:09:27.089Z,10.91
2017-03-20T00:10:27.150Z,10.88
2017-03-20T00:11:27.121Z,10.88
2017-03-20T00:12:41.758Z,10.81
2017-03-20T00:13:26.859Z,10.88
2017-03-20T00:14:27.190Z,10.81
2017-03-20T00:15:27.202Z,10.89
2017-03-20T00:16:27.228Z,10.94
2017-03-20T00:17:27.241Z,10.81
2017-03-20T00:18:27.266Z,10.7
2017-03-20T00:19:27.327Z,10.76
2017-03-20T00:20:27.305Z,10.67
2017-03-20T00:21:27.022Z,10.74
2017-03-20T00:22:27.347Z,10.76
2017-03-20T00:23:27.368Z,10.74
2017-03-20T00:24:27.434Z,10.76
2017-03-20T00:25:27.405Z,10.79
2017-03-20T00:26:27.129Z,10.81
2017-03-20T00:27:27.448Z,10.71
2017-03-20T00:28:42.087Z,10.79
2017-03-20T00:29:27.489Z,10.79
2017-03-20T00:30:27.509Z,10.79
2017-03-20T00:31:27.531Z,10.7
2017-03-20T00:32:27.558Z,10.84
2017-03-20T00:33:41.882Z,10.84
2017-03-20T00:34:27.593Z,10.84
2017-03-20T00:35:27.311Z,10.73
2017-03-20T00:36:27.634Z,10.88
2017-03-20T00:37:27.652Z,10.71
2017-03-20T00:38:27.677Z,10.81
2017-03-20T00:39:27.394Z,10.84
2017-03-20T00:40:27.414Z,10.85
2017-03-20T00:41:27.773Z,10.84
2017-03-20T00:42:27.759Z,10.85
2017-03-20T00:43:42.395Z,10.78
2017-03-20T00:44:27.801Z,10.73
2017-03-20T00:45:42.433Z,10.82
2017-03-20T00:46:27.848Z,10.91
2017-03-20T00:47:27.862Z,10.76
2017-03-20T00:48:27.579Z,10.74
2017-03-20T00:49:42.667Z,10.81
2017-03-20T00:50:27.917Z,10.78
2017-03-20T00:51:27.940Z,10.79
2017-03-20T00:52:27.962Z,10.81
2017-03-20T00:53:27.680Z,10.82
2017-03-20T00:55:28.021Z,10.88
2017-03-20T00:57:28.060Z,10.68
2017-03-20T00:58:28.085Z,10.81
2017-03-20T00:59:28.107Z,10.91
2017-03-20T01:00:28.130Z,10.85
2017-03-20T01:01:28.145Z,10.84
2017-03-20T01:02:28.168Z,10.76
2017-03-20T01:03:28.192Z,10.67
2017-03-20T01:04:28.216Z,10.81
2017-03-20T01:05:42.842Z,10.74
2017-03-20T01:06:27.944Z,10.71
2017-03-20T01:07:28.269Z,10.89
2017-03-20T01:08:28.291Z,10.91
2017-03-20T01:09:28.314Z,10.85
2017-03-20T01:10:28.365Z,10.86
2017-03-20T01:11:28.351Z,10.84
2017-03-20T01:12:28.371Z,10.74
2017-03-20T01:13:28.395Z,10.71
2017-03-20T01:14:28.420Z,10.85
2017-03-20T01:16:28.454Z,10.74
2017-03-20T01:18:28.498Z,10.79
2017-03-20T01:19:28.521Z,10.74
2017-03-20T01:20:28.537Z,10.74
2017-03-20T01:21:43.173Z,10.81
2017-03-20T01:22:28.578Z,10.74
2017-03-20T01:23:28.607Z,10.76
2017-03-20T01:24:28.620Z,10.71
2017-03-20T01:25:28.645Z,10.74
2017-03-20T01:26:28.672Z,10.78
2017-03-20T01:27:28.682Z,10.7
2017-03-20T01:28:28.399Z,10.79
2017-03-20T01:30:28.742Z,10.68
2017-03-20T01:31:28.760Z,10.7
2017-03-20T01:32:28.787Z,10.74
2017-03-20T01:33:28.806Z,10.73
2017-03-20T01:34:28.525Z,10.67
2017-03-20T01:35:28.852Z,10.81
2017-03-20T01:36:43.483Z,10.71
2017-03-20T01:37:28.890Z,10.71
2017-03-20T01:38:28.908Z,10.73
2017-03-20T01:39:28.928Z,10.78
2017-03-20T01:40:28.950Z,10.71
2017-03-20T01:41:28.969Z,10.78
2017-03-20T01:42:28.990Z,10.74
2017-03-20T01:43:43.632Z,10.76
2017-03-20T01:44:29.034Z,10.76
2017-03-20T01:46:29.075Z,10.71
2017-03-20T01:47:29.093Z,10.74
2017-03-20T01:48:28.815Z,10.78
2017-03-20T01:49:43.750Z,10.7
2017-03-20T01:50:28.853Z,10.76
2017-03-20T01:51:28.872Z,10.85
2017-03-20T01:52:28.894Z,10.86
2017-03-20T01:53:28.915Z,10.88
2017-03-20T01:54:28.639Z,10.82
2017-03-20T01:55:28.957Z,10.89
2017-03-20T01:56:28.975Z,10.84
2017-03-20T01:57:28.996Z,10.89
2017-03-20T01:58:29.319Z,10.86
2017-03-20T01:59:29.041Z,10.84
2017-03-20T02:00:29.366Z,10.74
2017-03-20T02:01:29.382Z,10.88
2017-03-20T02:02:29.403Z,10.86
2017-03-20T02:03:29.425Z,10.88
2017-03-20T02:04:43.756Z,10.85
2017-03-20T02:05:44.078Z,10.84
2017-03-20T02:06:29.588Z,10.86
2017-03-20T02:07:29.506Z,10.89
2017-03-20T02:08:44.142Z,10.78
2017-03-20T02:09:29.549Z,10.86
2017-03-20T02:10:29.565Z,10.96
2017-03-20T02:11:29.287Z,10.86
2017-03-20T02:12:29.556Z,10.86
2017-03-20T02:13:29.331Z,10.84
2017-03-20T02:14:29.650Z,10.88
2017-03-20T02:15:29.366Z,10.82
2017-03-20T02:16:29.693Z,10.88
2017-03-20T02:17:29.411Z,10.89
2017-03-20T02:18:29.735Z,10.89
2017-03-20T02:19:29.755Z,10.74
2017-03-20T02:20:29.777Z,10.71
2017-03-20T02:21:29.798Z,10.78
2017-03-20T02:22:29.814Z,10.76
2017-03-20T02:23:29.840Z,10.71
2017-03-20T02:24:44.170Z,10.76
2017-03-20T02:25:29.880Z,10.78
2017-03-20T02:26:29.899Z,10.82
2017-03-20T02:27:29.620Z,10.7
2017-03-20T02:28:29.939Z,10.76
2017-03-20T02:29:29.660Z,10.74
2017-03-20T02:30:29.981Z,10.78
2017-03-20T02:31:30.002Z,10.82
2017-03-20T02:32:30.032Z,10.68
2017-03-20T02:34:30.073Z,10.68
2017-03-20T02:35:30.085Z,10.74
2017-03-20T02:36:30.120Z,10.71
2017-03-20T02:37:29.823Z,10.76
2017-03-20T02:38:30.151Z,10.71
2017-03-20T02:39:29.863Z,10.79
2017-03-20T02:40:44.503Z,10.73
2017-03-20T02:41:29.905Z,10.79
2017-03-20T02:42:30.232Z,10.74
2017-03-20T02:43:30.258Z,10.74
2017-03-20T02:44:30.272Z,10.74
2017-03-20T02:46:44.935Z,10.7
2017-03-20T02:47:30.032Z,10.74
2017-03-20T02:48:44.973Z,10.68
2017-03-20T02:49:30.378Z,10.71
2017-03-20T02:50:30.394Z,10.73
2017-03-20T02:52:30.441Z,10.81
2017-03-20T02:53:30.483Z,10.79
2017-03-20T02:54:30.480Z,10.78
2017-03-20T02:55:45.112Z,10.78
2017-03-20T02:56:45.135Z,10.78
2017-03-20T02:57:30.541Z,10.73
2017-03-20T02:58:30.571Z,10.79
2017-03-20T02:59:30.279Z,10.76
2017-03-20T03:00:30.602Z,10.74
2017-03-20T03:01:30.625Z,10.79
2017-03-20T03:02:30.642Z,10.74
2017-03-20T03:04:30.689Z,10.74
2017-03-20T03:05:30.706Z,10.81
2017-03-20T03:06:30.726Z,10.7
2017-03-20T03:07:30.778Z,10.82
2017-03-20T03:08:30.771Z,10.76
2017-03-20T03:09:30.792Z,10.7
2017-03-20T03:10:30.821Z,10.74
2017-03-20T03:11:45.145Z,10.68
2017-03-20T03:12:30.856Z,10.74
2017-03-20T03:13:30.874Z,10.79
2017-03-20T03:14:30.898Z,10.68
2017-03-20T03:15:30.916Z,10.81
2017-03-20T03:16:30.329Z,10.73
2017-03-20T03:17:30.958Z,10.7
2017-03-20T03:18:30.981Z,10.73
2017-03-20T03:19:31.001Z,10.71
2017-03-20T03:20:31.016Z,10.68
2017-03-20T03:21:31.075Z,10.73
2017-03-20T03:22:31.065Z,10.68
2017-03-20T03:23:30.475Z,10.68
2017-03-20T03:24:31.132Z,10.71
2017-03-20T03:25:31.122Z,10.71
2017-03-20T03:26:31.142Z,10.64
2017-03-20T03:27:31.164Z,10.71
2017-03-20T03:28:31.187Z,10.67
2017-03-20T03:29:30.901Z,10.64
2017-03-20T03:30:30.921Z,10.7
2017-03-20T03:31:31.247Z,10.68
2017-03-20T03:32:30.963Z,10.64
2017-03-20T03:33:45.910Z,10.64
2017-03-20T03:35:31.032Z,10.73
2017-03-20T03:36:31.349Z,10.67
2017-03-20T03:37:31.369Z,10.64
2017-03-20T03:38:46.052Z,10.61
2017-03-20T03:39:46.028Z,10.71
2017-03-20T03:40:31.435Z,10.68
2017-03-20T03:41:31.451Z,10.61
2017-03-20T03:42:31.476Z,10.73
2017-03-20T03:43:46.111Z,10.68
2017-03-20T03:44:31.518Z,10.71
2017-03-20T03:45:31.539Z,10.66
2017-03-20T03:46:31.556Z,10.66
2017-03-20T03:47:31.574Z,10.71
2017-03-20T03:48:31.598Z,10.71
2017-03-20T03:49:31.620Z,10.68
2017-03-20T03:50:31.636Z,10.66
2017-03-20T03:51:31.658Z,10.76
2017-03-20T03:52:31.681Z,10.66
2017-03-20T03:53:31.704Z,10.68
2017-03-20T03:54:46.338Z,10.67
2017-03-20T03:55:31.746Z,10.68
2017-03-20T03:56:46.379Z,10.68
2017-03-20T03:57:31.786Z,10.73
2017-03-20T03:58:31.197Z,10.7
2017-03-20T03:59:46.441Z,10.64
2017-03-20T04:00:31.543Z,10.7
2017-03-20T04:01:31.867Z,10.76
2017-03-20T04:02:31.586Z,10.71
2017-03-20T04:04:31.941Z,10.7
2017-03-20T04:05:31.645Z,10.71
2017-03-20T04:07:46.611Z,10.7
2017-03-20T04:08:32.019Z,10.68
2017-03-20T04:09:32.035Z,10.71
2017-03-20T04:10:32.052Z,10.71
2017-03-20T04:11:31.773Z,10.71
2017-03-20T04:12:32.094Z,10.68
2017-03-20T04:13:32.119Z,10.66
2017-03-20T04:14:32.139Z,10.7
2017-03-20T04:15:46.772Z,10.68
2017-03-20T04:16:32.181Z,10.73
2017-03-20T04:17:32.200Z,10.68
2017-03-20T04:18:32.222Z,10.68
2017-03-20T04:19:31.937Z,10.76
2017-03-20T04:20:32.261Z,10.66
2017-03-20T04:21:46.903Z,10.73
2017-03-20T04:22:32.301Z,10.74
2017-03-20T04:23:32.327Z,10.73
2017-03-20T04:24:32.347Z,10.76
2017-03-20T04:25:32.065Z,10.78
2017-03-20T04:26:32.380Z,10.73
2017-03-20T04:27:32.408Z,10.68
2017-03-20T04:28:47.041Z,10.73
2017-03-20T04:29:32.448Z,10.67
2017-03-20T04:30:32.466Z,10.73
2017-03-20T04:31:47.103Z,10.73
2017-03-20T04:32:32.509Z,10.73
2017-03-20T04:33:32.532Z,10.74
2017-03-20T04:34:32.552Z,10.7
2017-03-20T04:35:32.572Z,10.76
2017-03-20T04:36:32.592Z,10.82
2017-03-20T04:37:32.614Z,10.74
2017-03-20T04:39:32.658Z,10.71
2017-03-20T04:41:32.696Z,10.76
2017-03-20T04:42:32.715Z,10.68
2017-03-20T04:43:32.748Z,10.67
2017-03-20T04:44:32.457Z,10.71
2017-03-20T04:45:32.779Z,10.76
2017-03-20T04:46:47.415Z,10.78
2017-03-20T04:48:32.843Z,10.86
2017-03-20T04:49:32.863Z,10.7
2017-03-20T04:50:32.883Z,10.78
2017-03-20T04:51:32.907Z,10.81
2017-03-20T04:52:32.923Z,10.78
2017-03-20T04:53:32.951Z,10.74
2017-03-20T04:54:32.966Z,10.81
2017-03-20T04:55:32.988Z,10.76
2017-03-20T04:56:33.013Z,10.79
2017-03-20T04:57:33.037Z,10.76
2017-03-20T04:58:33.050Z,10.73
2017-03-20T04:59:33.068Z,10.7
2017-03-20T05:00:33.089Z,10.74
2017-03-20T05:02:33.130Z,10.82
2017-03-20T05:03:33.162Z,10.88
2017-03-20T05:04:32.871Z,10.7
2017-03-20T05:05:33.195Z,10.81
2017-03-20T05:06:33.210Z,10.89
2017-03-20T05:07:33.237Z,10.84
2017-03-20T05:08:33.294Z,10.89
2017-03-20T05:09:33.280Z,10.86
2017-03-20T05:10:33.296Z,10.96
2017-03-20T05:12:47.959Z,10.82
2017-03-20T05:13:47.979Z,10.85
2017-03-20T05:14:33.384Z,10.79
2017-03-20T05:15:33.407Z,10.86
2017-03-20T05:16:48.038Z,10.88
2017-03-20T05:17:33.445Z,10.85
2017-03-20T05:18:48.082Z,10.96
2017-03-20T05:19:33.484Z,10.94
2017-03-20T05:20:33.544Z,10.96
2017-03-20T05:21:33.526Z,10.92
2017-03-20T05:22:33.249Z,10.92
2017-03-20T05:23:33.571Z,10.92
2017-03-20T05:24:33.594Z,10.91
2017-03-20T05:25:33.608Z,10.84
2017-03-20T05:26:33.330Z,10.85
2017-03-20T05:27:33.655Z,10.82
2017-03-20T05:28:33.674Z,10.88
2017-03-20T05:29:33.390Z,10.94
2017-03-20T05:30:33.714Z,10.86
2017-03-20T05:31:33.736Z,10.88
2017-03-20T05:32:33.763Z,10.99
2017-03-20T05:33:33.481Z,10.96
2017-03-20T05:34:48.417Z,10.94
2017-03-20T05:35:33.820Z,10.94
2017-03-20T05:36:33.842Z,10.99
2017-03-20T05:37:33.868Z,10.92
2017-03-20T05:38:33.887Z,10.91
2017-03-20T05:39:33.903Z,10.99
2017-03-20T05:40:33.926Z,10.91
2017-03-20T05:41:33.946Z,10.97
2017-03-20T05:42:33.970Z,11
2017-03-20T05:43:33.990Z,10.89
2017-03-20T05:46:33.746Z,10.89
2017-03-20T05:47:48.688Z,10.96
2017-03-20T05:48:34.093Z,11
2017-03-20T05:49:34.119Z,10.92
2017-03-20T05:50:48.751Z,10.91
2017-03-20T05:51:34.154Z,10.91
2017-03-20T05:53:34.201Z,10.97
2017-03-20T05:54:34.217Z,11.07
2017-03-20T05:55:34.239Z,11.03
2017-03-20T05:57:34.283Z,10.97
2017-03-20T05:58:34.314Z,10.99
2017-03-20T05:59:34.325Z,11.02
2017-03-20T06:00:34.344Z,10.99
2017-03-20T06:01:34.371Z,11.04
2017-03-20T06:02:34.387Z,10.94
2017-03-20T06:03:34.107Z,11.03
2017-03-20T06:04:34.428Z,10.97
2017-03-20T06:05:34.145Z,11.09
2017-03-20T06:06:49.086Z,11.07
2017-03-20T06:07:34.494Z,11.14
2017-03-20T06:08:34.518Z,11.11
2017-03-20T06:09:34.536Z,11.11
2017-03-20T06:10:34.556Z,11.1
2017-03-20T06:12:34.597Z,11.1
2017-03-20T06:14:34.641Z,11.1
2017-03-20T06:15:34.662Z,11.19
2017-03-20T06:16:34.679Z,11.1
2017-03-20T06:17:49.319Z,11.1
2017-03-20T06:18:34.725Z,11.14
2017-03-20T06:19:49.361Z,11.14
2017-03-20T06:20:34.767Z,11.14
2017-03-20T06:21:49.404Z,11.14
2017-03-20T06:22:34.810Z,11.1
2017-03-20T06:23:34.834Z,11.06
2017-03-20T06:24:34.548Z,11.04
2017-03-20T06:25:34.879Z,11.04
2017-03-20T06:26:34.893Z,11.11
2017-03-20T06:27:49.570Z,11.03
2017-03-20T06:28:34.942Z,11.07
2017-03-20T06:29:34.956Z,11.07
2017-03-20T06:30:34.979Z,11.04
2017-03-20T06:31:35.031Z,11.07
2017-03-20T06:32:35.022Z,11.04
2017-03-20T06:33:35.044Z,11.06
2017-03-20T06:34:49.679Z,11.09
2017-03-20T06:35:35.085Z,11.09
2017-03-20T06:36:35.105Z,11.09
2017-03-20T06:37:35.133Z,11
2017-03-20T06:38:35.151Z,11
2017-03-20T06:39:35.472Z,11.07
2017-03-20T06:40:34.889Z,11.07
2017-03-20T06:41:35.211Z,11.07
2017-03-20T06:42:35.232Z,11.1
2017-03-20T06:46:35.014Z,11.22
2017-03-20T06:48:35.363Z,11.22
2017-03-20T06:49:49.996Z,11.22
2017-03-20T06:50:35.405Z,11.24
2017-03-20T06:51:35.118Z,11.27
2017-03-20T06:52:35.446Z,11.32
2017-03-20T06:53:50.083Z,11.37
2017-03-20T06:54:35.488Z,11.39
2017-03-20T06:55:35.517Z,11.33
2017-03-20T06:56:35.524Z,11.4
2017-03-20T06:57:35.548Z,11.33
2017-03-20T06:58:35.567Z,11.37
2017-03-20T06:59:35.591Z,11.35
2017-03-20T07:03:35.683Z,11.35
2017-03-20T07:04:35.699Z,11.36
2017-03-20T07:05:35.112Z,11.33
2017-03-20T07:06:35.439Z,11.29
2017-03-20T07:07:35.464Z,11.35
2017-03-20T07:08:35.479Z,11.29
2017-03-20T07:09:50.423Z,11.22
2017-03-20T07:10:35.874Z,11.33
2017-03-20T07:11:35.847Z,11.33
2017-03-20T07:12:35.566Z,11.25
2017-03-20T07:13:36.194Z,11.21
2017-03-20T07:14:35.911Z,11.24
2017-03-20T07:15:35.931Z,11.27
2017-03-20T07:18:36.002Z,11.29
2017-03-20T07:20:36.038Z,11.36
2017-03-20T07:21:36.058Z,11.25
2017-03-20T07:22:36.084Z,11.35
2017-03-20T07:23:36.105Z,11.39
2017-03-20T07:24:36.127Z,11.32
2017-03-20T07:25:50.765Z,11.44
2017-03-20T07:26:36.163Z,11.43
2017-03-20T07:27:36.189Z,11.44
2017-03-20T07:28:35.907Z,11.43
2017-03-20T07:29:35.928Z,11.42
2017-03-20T07:30:35.685Z,11.43
2017-03-20T07:31:36.277Z,11.42
2017-03-20T07:32:36.297Z,11.35
2017-03-20T07:33:36.317Z,11.35
2017-03-20T07:35:36.053Z,11.39
2017-03-20T07:36:36.377Z,11.4
2017-03-20T07:37:50.713Z,11.37
2017-03-20T07:38:36.125Z,11.29
2017-03-20T07:39:36.443Z,11.35
2017-03-20T07:40:36.465Z,11.39
2017-03-20T07:41:51.100Z,11.36
2017-03-20T07:42:36.859Z,11.29
2017-03-20T07:43:36.533Z,11.35
2017-03-20T07:44:36.549Z,11.46
2017-03-20T07:45:36.571Z,11.33
2017-03-20T07:46:36.592Z,11.43
2017-03-20T07:47:36.613Z,11.44
2017-03-20T07:48:36.634Z,11.37
2017-03-20T07:49:36.659Z,11.35
2017-03-20T07:50:36.374Z,11.42
2017-03-20T07:51:36.703Z,11.47
2017-03-20T07:52:36.727Z,11.42
2017-03-20T07:53:36.752Z,11.47
2017-03-20T07:54:36.459Z,11.43
2017-03-20T07:55:36.784Z,11.43
2017-03-20T07:56:51.425Z,11.47
2017-03-20T07:57:36.530Z,11.52
2017-03-20T07:58:36.550Z,11.55
2017-03-20T07:59:36.879Z,11.61
2017-03-20T08:00:36.591Z,11.58
2017-03-20T08:01:36.610Z,11.57
2017-03-20T08:02:36.942Z,11.54
2017-03-20T08:03:36.656Z,11.54
2017-03-20T08:06:36.416Z,11.54
2017-03-20T08:07:37.041Z,11.55
2017-03-20T08:08:37.066Z,11.58
2017-03-20T08:09:37.087Z,11.55
2017-03-20T08:10:37.110Z,11.64
2017-03-20T08:11:37.127Z,11.57
2017-03-20T08:12:37.161Z,11.67
2017-03-20T08:13:37.177Z,11.62
2017-03-20T08:14:37.194Z,11.7
2017-03-20T08:15:36.911Z,11.76
2017-03-20T08:16:36.951Z,11.79
2017-03-20T08:17:37.260Z,11.67
2017-03-20T08:18:37.183Z,11.72
2017-03-20T08:19:37.306Z,11.65
2017-03-20T08:20:37.321Z,11.7
2017-03-20T08:21:37.342Z,11.72
2017-03-20T08:22:37.382Z,11.78
2017-03-20T08:23:37.390Z,11.72
2017-03-20T08:24:37.411Z,11.75
2017-03-20T08:25:52.045Z,11.76
2017-03-20T08:26:37.450Z,11.8
2017-03-20T08:27:37.474Z,11.82
2017-03-20T08:28:52.462Z,11.83
2017-03-20T08:29:37.518Z,11.86
2017-03-20T08:30:37.542Z,11.76
2017-03-20T08:31:37.560Z,11.8
2017-03-20T08:32:37.585Z,11.83
2017-03-20T08:33:37.606Z,11.78
2017-03-20T08:34:37.626Z,11.9
2017-03-20T08:37:37.694Z,11.76
2017-03-20T08:38:37.713Z,11.91
2017-03-20T08:39:37.734Z,11.85
2017-03-20T08:40:37.450Z,11.94
2017-03-20T08:41:37.778Z,11.99
2017-03-20T08:42:37.801Z,12.02
2017-03-20T08:43:37.824Z,12.16
2017-03-20T08:44:52.460Z,12.1
2017-03-20T08:45:37.874Z,12.2
2017-03-20T08:46:37.882Z,12.09
2017-03-20T08:47:37.912Z,12.17
2017-03-20T08:48:37.932Z,12.24
2017-03-20T08:49:37.686Z,12.27
2017-03-20T08:50:37.973Z,12.27
2017-03-20T08:52:38.032Z,12.23
2017-03-20T08:53:38.042Z,12.35
2017-03-20T08:55:52.700Z,12.34
2017-03-20T08:56:37.810Z,12.37
2017-03-20T08:57:38.140Z,12.28
2017-03-20T08:58:38.151Z,12.32
2017-03-20T08:59:38.186Z,12.27
2017-03-20T09:00:52.808Z,12.31
2017-03-20T09:01:38.215Z,12.34
2017-03-20T09:02:38.247Z,12.34
2017-03-20T09:03:38.266Z,12.42
2017-03-20T09:04:37.977Z,12.42
2017-03-20T09:05:38.299Z,12.42
2017-03-20T09:06:38.323Z,12.45
2017-03-20T09:07:38.060Z,12.46
2017-03-20T09:08:38.075Z,12.46
2017-03-20T09:09:38.086Z,12.53
2017-03-20T09:11:38.131Z,12.52
2017-03-20T09:12:38.470Z,12.64
2017-03-20T09:13:38.491Z,12.7
2017-03-20T09:14:38.207Z,12.67
2017-03-20T09:15:38.219Z,12.65
2017-03-20T09:16:53.164Z,12.77
2017-03-20T09:17:38.278Z,12.78
2017-03-20T09:18:38.595Z,12.72
2017-03-20T09:19:38.614Z,12.67
2017-03-20T09:20:38.635Z,12.64
2017-03-20T09:21:38.657Z,12.65
2017-03-20T09:23:38.397Z,12.77
2017-03-20T09:24:38.421Z,12.78
2017-03-20T09:27:38.792Z,12.68
2017-03-20T09:28:53.430Z,12.62
2017-03-20T09:29:53.451Z,12.67
2017-03-20T09:30:38.860Z,12.56
2017-03-20T09:31:53.497Z,12.62
2017-03-20T09:32:38.907Z,12.65
2017-03-20T09:33:38.929Z,12.52
2017-03-20T09:34:38.948Z,12.64
2017-03-20T09:35:38.969Z,12.64
2017-03-20T09:36:38.994Z,12.7
2017-03-20T09:37:38.715Z,12.65
2017-03-20T09:38:38.736Z,12.53
2017-03-20T09:39:39.061Z,12.52
2017-03-20T09:40:39.078Z,12.52
2017-03-20T09:42:53.744Z,12.45
2017-03-20T09:44:39.173Z,12.46
2017-03-20T09:45:39.196Z,12.46
2017-03-20T09:46:39.215Z,12.49
2017-03-20T09:47:39.264Z,12.42
2017-03-20T09:48:39.264Z,12.47
2017-03-20T09:49:39.281Z,12.46
2017-03-20T09:50:39.302Z,12.52
2017-03-20T09:51:39.326Z,12.46
2017-03-20T09:52:39.398Z,12.49
2017-03-20T09:53:39.066Z,12.42
2017-03-20T09:54:39.401Z,12.45
2017-03-20T09:55:39.416Z,12.46
2017-03-20T09:56:39.134Z,12.46
2017-03-20T09:57:39.462Z,12.46
2017-03-20T09:58:53.797Z,12.46
2017-03-20T09:59:39.209Z,12.54
2017-03-20T10:00:39.529Z,12.54
2017-03-20T10:01:39.549Z,12.59
2017-03-20T10:02:39.573Z,12.52
2017-03-20T10:03:53.907Z,12.52
2017-03-20T10:04:39.652Z,12.6
2017-03-20T10:05:39.637Z,12.54
2017-03-20T10:06:39.660Z,12.41
2017-03-20T10:07:39.383Z,12.5
2017-03-20T10:10:39.443Z,12.57
2017-03-20T10:11:39.771Z,12.67
2017-03-20T10:12:39.490Z,12.68
2017-03-20T10:13:39.826Z,12.65
2017-03-20T10:14:39.535Z,12.65
2017-03-20T10:15:39.555Z,12.68
2017-03-20T10:16:54.194Z,12.62
2017-03-20T10:17:39.907Z,12.71
2017-03-20T10:18:39.928Z,12.72
2017-03-20T10:19:54.265Z,12.83
2017-03-20T10:20:39.680Z,12.79
2017-03-20T10:21:39.994Z,12.77
2017-03-20T10:22:40.022Z,12.78
2017-03-20T10:23:40.042Z,12.78
2017-03-20T10:24:54.685Z,12.85
2017-03-20T10:25:40.082Z,12.85
2017-03-20T10:26:40.106Z,12.83
2017-03-20T10:27:40.134Z,12.82
2017-03-20T10:28:40.155Z,12.78
2017-03-20T10:30:40.206Z,12.83
2017-03-20T10:31:39.914Z,12.74
2017-03-20T10:32:39.940Z,12.68
2017-03-20T10:33:40.266Z,12.67
2017-03-20T10:34:39.984Z,12.7
2017-03-20T10:35:54.925Z,12.64
2017-03-20T10:36:40.330Z,12.53
2017-03-20T10:37:40.358Z,12.64
2017-03-20T10:38:40.382Z,12.59
2017-03-20T10:39:40.400Z,12.54
2017-03-20T10:40:40.429Z,12.67
2017-03-20T10:41:40.140Z,12.6
2017-03-20T10:42:40.163Z,12.68
2017-03-20T10:43:40.488Z,12.67
2017-03-20T10:44:40.208Z,12.54
2017-03-20T10:45:40.531Z,12.53
2017-03-20T10:46:55.171Z,12.67
2017-03-20T10:47:55.192Z,12.68
2017-03-20T10:48:40.599Z,12.75
2017-03-20T10:49:40.871Z,12.65
2017-03-20T10:50:40.640Z,12.65
2017-03-20T10:51:55.280Z,12.74
2017-03-20T10:52:40.688Z,12.7
2017-03-20T10:53:40.712Z,12.86
2017-03-20T10:54:40.443Z,12.85
2017-03-20T10:55:40.755Z,12.9
2017-03-20T10:56:40.775Z,12.89
2017-03-20T10:57:40.803Z,12.9
2017-03-20T10:58:40.821Z,12.92
2017-03-20T10:59:40.847Z,12.92
2017-03-20T11:00:40.871Z,12.96
2017-03-20T11:01:40.889Z,13.11
2017-03-20T11:02:40.914Z,13.26
2017-03-20T11:03:40.935Z,13.39
2017-03-20T11:04:40.959Z,13.49
2017-03-20T11:05:40.983Z,13.55
2017-03-20T11:06:55.619Z,13.54
2017-03-20T11:07:41.026Z,13.64
2017-03-20T11:08:55.664Z,13.62
2017-03-20T11:09:41.105Z,13.64
2017-03-20T11:10:41.092Z,13.81
2017-03-20T11:11:41.116Z,13.73
2017-03-20T11:12:41.144Z,13.78
2017-03-20T11:13:41.163Z,13.79
2017-03-20T11:15:41.207Z,13.97
2017-03-20T11:16:41.231Z,14.07
2017-03-20T11:17:40.959Z,14.09
2017-03-20T11:18:41.281Z,13.97
2017-03-20T11:19:55.916Z,14.02
2017-03-20T11:20:41.321Z,14.09
2017-03-20T11:21:41.347Z,14.03
2017-03-20T11:22:41.370Z,14.04
2017-03-20T11:23:41.100Z,13.97
2017-03-20T11:24:41.417Z,13.96
2017-03-20T11:25:41.440Z,13.92
2017-03-20T11:26:41.458Z,13.96
2017-03-20T11:27:41.487Z,13.87
2017-03-20T11:28:41.511Z,13.78
2017-03-20T11:29:41.530Z,13.81
2017-03-20T11:30:41.554Z,13.99
2017-03-20T11:31:41.271Z,13.95
2017-03-20T11:32:41.617Z,14.07
2017-03-20T11:33:41.323Z,14.27
2017-03-20T11:34:41.646Z,14.5
2017-03-20T11:35:41.062Z,14.4
2017-03-20T11:36:41.694Z,14.62
2017-03-20T11:37:41.714Z,14.62
2017-03-20T11:38:56.357Z,14.61
2017-03-20T11:39:41.764Z,14.55
2017-03-20T11:40:41.787Z,14.61
2017-03-20T11:41:41.810Z,14.6
2017-03-20T11:42:41.834Z,14.6
2017-03-20T11:43:41.868Z,14.6
2017-03-20T11:44:41.622Z,14.58
2017-03-20T11:45:41.904Z,14.65
2017-03-20T11:47:41.957Z,14.52
2017-03-20T11:48:41.977Z,14.52
2017-03-20T11:49:42.000Z,14.54
2017-03-20T11:50:42.023Z,14.47
2017-03-20T11:51:56.660Z,14.52
2017-03-20T11:52:41.764Z,14.64
2017-03-20T11:53:42.092Z,14.55
2017-03-20T11:54:56.732Z,14.64
2017-03-20T11:55:42.140Z,14.65
2017-03-20T11:56:42.163Z,14.57
2017-03-20T11:57:42.197Z,14.5
2017-03-20T11:58:42.217Z,14.5
2017-03-20T11:59:42.233Z,14.46
2017-03-20T12:00:41.962Z,14.33
2017-03-20T12:01:42.279Z,14.35
2017-03-20T12:02:42.304Z,14.27
2017-03-20T12:03:42.329Z,14.24
2017-03-20T12:04:42.351Z,14.18
2017-03-20T12:05:42.371Z,14.03
2017-03-20T12:06:57.013Z,14.17
2017-03-20T12:07:42.422Z,14.15
2017-03-20T12:08:42.451Z,14.07
2017-03-20T12:09:42.512Z,14.24
2017-03-20T12:10:56.801Z,14.2
2017-03-20T12:11:42.208Z,14.25
2017-03-20T12:13:42.564Z,14.2
2017-03-20T12:14:42.279Z,14.29
2017-03-20T12:15:42.301Z,14.15
2017-03-20T12:16:42.629Z,14.27
2017-03-20T12:17:42.353Z,14.27
2017-03-20T12:19:42.701Z,14.17
2017-03-20T12:20:57.341Z,14.18
2017-03-20T12:21:42.443Z,14.24
2017-03-20T12:22:57.385Z,14.22
2017-03-20T12:23:42.490Z,14.21
2017-03-20T12:24:42.512Z,14.25
2017-03-20T12:25:42.544Z,14.14
2017-03-20T12:26:57.485Z,14.09
2017-03-20T12:28:57.535Z,13.97
2017-03-20T12:30:42.656Z,13.89
2017-03-20T12:31:57.602Z,13.97
2017-03-20T12:32:57.624Z,13.91
2017-03-20T12:33:43.027Z,13.99
2017-03-20T12:34:43.095Z,13.91
2017-03-20T12:35:43.069Z,13.88
2017-03-20T12:36:42.793Z,13.99
2017-03-20T12:37:43.117Z,14.14
2017-03-20T12:38:43.142Z,14.14
2017-03-20T12:39:43.167Z,14.2
2017-03-20T12:40:43.186Z,14.33
2017-03-20T12:41:57.828Z,14.33
2017-03-20T12:42:43.239Z,14.43
2017-03-20T12:43:43.259Z,14.5
2017-03-20T12:44:43.284Z,14.64
2017-03-20T12:45:43.316Z,14.6
2017-03-20T12:46:57.943Z,14.46
2017-03-20T12:47:43.058Z,14.5
2017-03-20T12:48:43.071Z,14.58
2017-03-20T12:50:43.128Z,14.7
2017-03-20T12:51:43.140Z,14.64
2017-03-20T12:52:43.168Z,14.65
2017-03-20T12:53:43.193Z,14.72
2017-03-20T12:54:58.131Z,14.78
2017-03-20T12:55:43.233Z,14.78
2017-03-20T12:56:43.260Z,14.77
2017-03-20T12:57:43.592Z,14.8
2017-03-20T12:58:43.307Z,14.78
2017-03-20T12:59:43.329Z,14.78
2017-03-20T13:00:43.652Z,14.81
2017-03-20T13:01:43.373Z,14.68
2017-03-20T13:02:43.702Z,14.62
2017-03-20T13:03:43.730Z,14.54
2017-03-20T13:04:43.773Z,14.46
2017-03-20T13:05:43.467Z,14.36
2017-03-20T13:07:43.820Z,14.25
2017-03-20T13:08:43.543Z,14.14
2017-03-20T13:09:43.562Z,14.14
2017-03-20T13:10:43.587Z,14.22
2017-03-20T13:11:43.607Z,14.15
2017-03-20T13:12:43.631Z,14.22
2017-03-20T13:13:58.578Z,14.21
2017-03-20T13:14:43.989Z,14.02
2017-03-20T13:15:43.704Z,14
2017-03-20T13:16:43.722Z,13.95
2017-03-20T13:18:44.077Z,13.97
2017-03-20T13:19:44.099Z,13.96
2017-03-20T13:20:43.514Z,14
2017-03-20T13:22:44.169Z,14.14
2017-03-20T13:23:44.191Z,14.15
2017-03-20T13:24:44.213Z,14.24
2017-03-20T13:25:58.854Z,14.32
2017-03-20T13:26:58.877Z,14.25
2017-03-20T13:27:44.287Z,14.33
2017-03-20T13:28:44.309Z,14.36
2017-03-20T13:29:58.948Z,14.39
2017-03-20T13:30:44.357Z,14.52
2017-03-20T13:31:44.378Z,14.47
2017-03-20T13:32:44.403Z,14.52
2017-03-20T13:33:44.678Z,14.64
2017-03-20T13:34:44.446Z,14.58
2017-03-20T13:35:44.467Z,14.5
2017-03-20T13:36:44.497Z,14.69
2017-03-20T13:37:44.520Z,14.64
2017-03-20T13:38:44.238Z,14.73
2017-03-20T13:39:44.565Z,14.77
2017-03-20T13:40:44.585Z,14.75
2017-03-20T13:41:44.608Z,14.88
2017-03-20T13:42:44.637Z,14.83
2017-03-20T13:43:44.408Z,14.77
2017-03-20T13:44:44.680Z,14.73
2017-03-20T13:45:59.320Z,14.75
2017-03-20T13:46:44.725Z,14.84
2017-03-20T13:47:44.448Z,14.81
2017-03-20T13:48:44.572Z,14.95
2017-03-20T13:49:44.493Z,15.09
2017-03-20T13:50:44.518Z,15.06
2017-03-20T13:51:44.845Z,15.14
2017-03-20T13:52:44.570Z,15.14
2017-03-20T13:53:44.588Z,15.23
2017-03-20T13:54:44.609Z,15.31
2017-03-20T13:55:44.943Z,15.38